Time;durP1;ratioP1;P1;durP2;ratioP2;P2;SDS_P1;SDS_P2;PMS_P1;PMS_P2;Temp;Humidity;BMP_temperature;BMP_pressure;BME280_temperature;BME280_humidity;BME280_pressure;Samples;Min_cycle;Max_cycle;Signal;HPM_P1;HPM_P2
2022/09/24 00:01:15;;;;;;;119.05;58.72;;;;;;;;;;4965314;28;20045;-73
2022/09/24 00:03:42;;;;;;;114.38;57.70;;;;;;;;;;4976984;28;20034;-73
2022/09/24 00:06:08;;;;;;;112.78;57.63;;;;;;;;;;4966742;28;20523;-73
2022/09/24 00:08:35;;;;;;;125.03;59.75;;;;;;;;;;4976127;28;20118;-73
2022/09/24 00:11:03;;;;;;;126.07;60.78;;;;;;;;;;4982937;28;20042;-73
2022/09/24 00:13:29;;;;;;;134.25;61.45;;;;;;;;;;4981746;28;20033;-73
2022/09/24 00:15:55;;;;;;;125.20;59.15;;;;;;;;;;4964871;28;20038;-73
2022/09/24 00:18:21;;;;;;;135.82;60.58;;;;;;;;;;4965776;28;20089;-74
2022/09/24 00:20:47;;;;;;;143.82;63.25;;;;;;;;;;4974384;28;20058;-73
2022/09/24 00:23:13;;;;;;;128.32;56.05;;;;;;;;;;4974280;28;20049;-73
2022/09/24 00:28:32;;;;;;;130.35;57.70;;;;;;;;;;4970711;28;20052;-73
2022/09/24 00:30:58;;;;;;;124.50;55.15;;;;;;;;;;4970610;28;20042;-73
2022/09/24 00:33:28;;;;;;;126.32;55.25;;;;;;;;;;4971460;28;20061;-72
2022/09/24 00:36:01;;;;;;;128.45;55.53;;;;;;;;;;4964899;28;20127;-73
2022/09/24 00:38:28;;;;;;;133.82;56.92;;;;;;;;;;4972609;28;20508;-73
2022/09/24 00:40:54;;;;;;;116.35;52.10;;;;;;;;;;4973738;28;20038;-73
2022/09/24 00:43:38;;;;;;;133.20;54.17;;;;;;;;;;4977014;28;20118;-72
2022/09/24 00:46:13;;;;;;;119.65;52.45;;;;;;;;;;4984252;28;20057;-73
2022/09/24 00:48:40;;;;;;;124.63;52.25;;;;;;;;;;4976006;28;20049;-73
2022/09/24 00:51:07;;;;;;;119.03;51.47;;;;;;;;;;4974912;28;20164;-72
2022/09/24 00:53:34;;;;;;;117.63;50.97;;;;;;;;;;4974896;28;20034;-73
2022/09/24 00:56:02;;;;;;;118.32;53.45;;;;;;;;;;4963250;28;20034;-72
2022/09/24 00:58:30;;;;;;;126.57;54.63;;;;;;;;;;4968502;28;20488;-73
2022/09/24 01:01:03;;;;;;;124.22;51.63;;;;;;;;;;4970745;28;20046;-72
2022/09/24 01:03:31;;;;;;;115.13;50.97;;;;;;;;;;4973353;28;20038;-72
2022/09/24 01:05:57;;;;;;;115.95;51.83;;;;;;;;;;4968129;28;20276;-73
2022/09/24 01:08:23;;;;;;;120.97;51.42;;;;;;;;;;4965768;28;20300;-73
2022/09/24 01:11:01;;;;;;;122.40;53.17;;;;;;;;;;4971956;28;20074;-73
2022/09/24 01:13:31;;;;;;;116.50;50.88;;;;;;;;;;4971710;28;20034;-73
2022/09/24 01:16:01;;;;;;;120.65;52.50;;;;;;;;;;4965177;28;20121;-72
2022/09/24 01:18:46;;;;;;;113.00;51.38;;;;;;;;;;4971680;28;20086;-72
2022/09/24 01:21:24;;;;;;;131.23;54.60;;;;;;;;;;4973904;28;20081;-72
2022/09/24 01:24:03;;;;;;;123.72;54.25;;;;;;;;;;4968300;28;20085;-73
2022/09/24 01:26:35;;;;;;;115.32;51.75;;;;;;;;;;4968615;28;20426;-72
2022/09/24 01:29:06;;;;;;;113.88;53.03;;;;;;;;;;4976863;28;20076;-72
2022/09/24 01:31:43;;;;;;;115.95;53.10;;;;;;;;;;4966412;28;20030;-72
2022/09/24 01:34:11;;;;;;;114.15;52.42;;;;;;;;;;4974218;28;20049;-73
2022/09/24 01:36:38;;;;;;;119.10;54.15;;;;;;;;;;4979235;28;20266;-73
2022/09/24 01:39:06;;;;;;;117.75;52.60;;;;;;;;;;4974897;28;20045;-72
2022/09/24 01:41:33;;;;;;;126.43;54.95;;;;;;;;;;4973305;28;20515;-72
2022/09/24 01:43:59;;;;;;;128.93;54.08;;;;;;;;;;4972323;28;20121;-73
2022/09/24 01:46:25;;;;;;;125.55;55.30;;;;;;;;;;4963056;28;20198;-72
2022/09/24 01:48:52;;;;;;;141.02;57.28;;;;;;;;;;4972681;28;20133;-73
2022/09/24 01:51:24;;;;;;;140.73;57.72;;;;;;;;;;4973705;28;20043;-73
2022/09/24 01:53:54;;;;;;;147.60;58.45;;;;;;;;;;4969264;28;20042;-74
2022/09/24 01:56:40;;;;;;;152.30;58.22;;;;;;;;;;4971211;28;20033;-73
2022/09/24 01:59:12;;;;;;;141.73;57.95;;;;;;;;;;4970877;28;20424;-73
2022/09/24 02:02:04;;;;;;;147.85;59.03;;;;;;;;;;4968139;28;20352;-72
2022/09/24 02:04:33;;;;;;;157.60;58.85;;;;;;;;;;4966736;28;20432;-74
2022/09/24 02:07:12;;;;;;;151.32;58.47;;;;;;;;;;4969205;28;20480;-73
2022/09/24 02:09:39;;;;;;;153.82;61.30;;;;;;;;;;4974951;28;20499;-74
2022/09/24 02:12:18;;;;;;;159.20;60.05;;;;;;;;;;4960459;28;20066;-74
2022/09/24 02:14:48;;;;;;;167.52;62.40;;;;;;;;;;4962796;28;20034;-73
2022/09/24 02:17:15;;;;;;;162.33;61.90;;;;;;;;;;4971155;28;20058;-73
2022/09/24 02:19:42;;;;;;;156.27;61.20;;;;;;;;;;4970611;28;20830;-73
2022/09/24 02:22:10;;;;;;;155.77;60.25;;;;;;;;;;4982473;28;20421;-73
2022/09/24 02:24:40;;;;;;;156.52;59.42;;;;;;;;;;4967261;28;20042;-75
2022/09/24 02:27:06;;;;;;;141.50;60.33;;;;;;;;;;4990600;28;20435;-73
2022/09/24 02:29:32;;;;;;;141.85;59.90;;;;;;;;;;4986296;28;20114;-73
2022/09/24 02:31:59;;;;;;;142.95;61.05;;;;;;;;;;4982718;28;20030;-73
2022/09/24 02:34:28;;;;;;;156.65;62.47;;;;;;;;;;4968934;28;20435;-73
2022/09/24 02:36:58;;;;;;;146.35;61.28;;;;;;;;;;4975260;28;20046;-73
2022/09/24 02:39:24;;;;;;;140.25;59.92;;;;;;;;;;4976359;28;20046;-73
2022/09/24 02:41:51;;;;;;;151.40;60.72;;;;;;;;;;4985410;28;20134;-73
2022/09/24 02:44:17;;;;;;;152.98;63.13;;;;;;;;;;4974576;28;20074;-73
2022/09/24 02:46:44;;;;;;;157.20;62.40;;;;;;;;;;4973112;28;20085;-73
2022/09/24 02:49:10;;;;;;;150.98;62.17;;;;;;;;;;4975104;28;20145;-73
2022/09/24 02:51:37;;;;;;;161.10;62.70;;;;;;;;;;4985639;28;20034;-73
2022/09/24 02:54:03;;;;;;;150.68;60.13;;;;;;;;;;4972662;28;20034;-73
2022/09/24 02:56:29;;;;;;;150.52;61.28;;;;;;;;;;4976690;28;20102;-73
2022/09/24 02:58:55;;;;;;;135.80;58.28;;;;;;;;;;4973347;28;20102;-73
2022/09/24 03:01:22;;;;;;;149.43;60.38;;;;;;;;;;4970095;28;20501;-73
2022/09/24 03:03:48;;;;;;;151.38;61.33;;;;;;;;;;4978404;28;20125;-73
2022/09/24 03:06:14;;;;;;;138.07;58.03;;;;;;;;;;4967283;28;20073;-73
2022/09/24 03:08:41;;;;;;;150.68;60.35;;;;;;;;;;4975967;28;20086;-73
2022/09/24 03:11:09;;;;;;;138.45;57.72;;;;;;;;;;4987291;28;20066;-74
2022/09/24 03:13:35;;;;;;;152.35;60.10;;;;;;;;;;4980027;28;20023;-73
2022/09/24 03:16:01;;;;;;;154.95;59.60;;;;;;;;;;4972003;28;20277;-73
2022/09/24 03:18:27;;;;;;;156.50;59.38;;;;;;;;;;4982228;28;20070;-73
2022/09/24 03:20:57;;;;;;;150.90;59.50;;;;;;;;;;4973392;28;20038;-74
2022/09/24 03:23:24;;;;;;;153.77;58.72;;;;;;;;;;4970531;28;20037;-73
2022/09/24 03:25:50;;;;;;;154.15;58.67;;;;;;;;;;4965300;28;20558;-73
2022/09/24 03:28:16;;;;;;;177.68;63.70;;;;;;;;;;4966545;28;20043;-73
2022/09/24 03:31:00;;;;;;;161.05;61.28;;;;;;;;;;4971844;28;20122;-73
2022/09/24 03:33:33;;;;;;;166.15;61.90;;;;;;;;;;4970619;28;20092;-72
2022/09/24 03:35:59;;;;;;;171.02;61.75;;;;;;;;;;4973796;28;20479;-73
2022/09/24 03:38:25;;;;;;;177.00;61.83;;;;;;;;;;4966994;28;20527;-72
2022/09/24 03:40:52;;;;;;;164.55;60.40;;;;;;;;;;4970648;28;20026;-73
2022/09/24 03:43:18;;;;;;;179.95;62.05;;;;;;;;;;4973230;28;20042;-73
2022/09/24 03:45:44;;;;;;;182.73;62.25;;;;;;;;;;4985019;28;20700;-72
2022/09/24 03:48:10;;;;;;;169.20;60.30;;;;;;;;;;4971212;28;20575;-73
2022/09/24 03:50:36;;;;;;;183.38;60.33;;;;;;;;;;4974467;28;20138;-72
2022/09/24 03:53:02;;;;;;;187.48;62.38;;;;;;;;;;4979357;28;20026;-73
2022/09/24 03:55:28;;;;;;;175.25;60.47;;;;;;;;;;4984925;28;20370;-73
2022/09/24 03:57:54;;;;;;;206.35;63.28;;;;;;;;;;4975484;28;20030;-72
2022/09/24 04:00:22;;;;;;;199.45;64.82;;;;;;;;;;4969612;28;20089;-72
2022/09/24 04:02:50;;;;;;;195.68;62.17;;;;;;;;;;4969485;28;20101;-72
2022/09/24 04:05:16;;;;;;;205.00;64.55;;;;;;;;;;4969534;28;20049;-72
2022/09/24 04:07:43;;;;;;;211.25;65.53;;;;;;;;;;4970091;28;20524;-72
2022/09/24 04:10:09;;;;;;;236.77;67.43;;;;;;;;;;4974970;28;20046;-73
2022/09/24 04:12:35;;;;;;;231.40;66.18;;;;;;;;;;4977263;28;20037;-72
2022/09/24 04:15:01;;;;;;;247.13;68.80;;;;;;;;;;4974425;28;20030;-72
2022/09/24 04:17:30;;;;;;;225.55;67.28;;;;;;;;;;4970836;28;20039;-73
2022/09/24 04:19:56;;;;;;;274.20;71.70;;;;;;;;;;4969797;28;20046;-73
2022/09/24 04:22:22;;;;;;;241.45;68.95;;;;;;;;;;4982443;28;20057;-73
2022/09/24 04:24:50;;;;;;;261.20;70.32;;;;;;;;;;4974518;28;20046;-73
2022/09/24 04:27:16;;;;;;;279.58;73.22;;;;;;;;;;4980459;28;20582;-72
2022/09/24 04:29:42;;;;;;;279.38;73.15;;;;;;;;;;4975515;28;20041;-73
2022/09/24 04:32:08;;;;;;;283.83;74.43;;;;;;;;;;4973980;28;20027;-73
2022/09/24 04:34:34;;;;;;;273.75;72.15;;;;;;;;;;4990566;28;20428;-73
2022/09/24 04:37:00;;;;;;;300.58;75.30;;;;;;;;;;4969792;28;20500;-73
2022/09/24 04:39:26;;;;;;;283.60;74.53;;;;;;;;;;4986101;28;20042;-72
2022/09/24 04:41:53;;;;;;;335.55;74.47;;;;;;;;;;4969599;28;20038;-72
2022/09/24 04:44:19;;;;;;;282.63;73.93;;;;;;;;;;4966087;28;20034;-73
2022/09/24 04:46:45;;;;;;;293.65;73.53;;;;;;;;;;4967926;28;20781;-72
2022/09/24 04:49:11;;;;;;;290.02;76.65;;;;;;;;;;4971323;28;20043;-72
2022/09/24 04:51:37;;;;;;;314.10;75.97;;;;;;;;;;4974975;28;20121;-73
2022/09/24 04:54:03;;;;;;;279.30;73.43;;;;;;;;;;4966118;28;20101;-73
2022/09/24 04:56:30;;;;;;;289.55;72.25;;;;;;;;;;4974136;28;20110;-73
2022/09/24 04:58:56;;;;;;;373.15;78.28;;;;;;;;;;4967543;28;20050;-73
2022/09/24 05:01:22;;;;;;;323.35;76.15;;;;;;;;;;4980594;28;20046;-72
2022/09/24 05:03:48;;;;;;;334.73;75.82;;;;;;;;;;4976082;28;20038;-72
2022/09/24 05:06:14;;;;;;;334.50;76.25;;;;;;;;;;4967484;28;20043;-71
2022/09/24 05:08:40;;;;;;;352.88;76.22;;;;;;;;;;4975094;28;20509;-72
2022/09/24 05:11:06;;;;;;;338.10;76.22;;;;;;;;;;4971015;28;20125;-70
2022/09/24 05:13:34;;;;;;;359.45;78.18;;;;;;;;;;4968033;28;20491;-73
2022/09/24 05:16:00;;;;;;;327.50;74.90;;;;;;;;;;4969233;28;20019;-73
2022/09/24 05:18:26;;;;;;;387.52;78.00;;;;;;;;;;4986246;28;20051;-72
2022/09/24 05:20:52;;;;;;;330.13;72.70;;;;;;;;;;4963875;28;20129;-73
2022/09/24 05:23:19;;;;;;;319.08;73.20;;;;;;;;;;4991537;28;20038;-73
2022/09/24 05:28:31;;;;;;;296.95;71.68;;;;;;;;;;4968190;28;20146;-73
2022/09/24 05:30:58;;;;;;;305.42;70.55;;;;;;;;;;4975350;28;20050;-73
2022/09/24 05:33:24;;;;;;;374.48;73.30;;;;;;;;;;4988697;28;20451;-73
2022/09/24 05:35:54;;;;;;;319.10;69.65;;;;;;;;;;4973750;28;20035;-73
2022/09/24 05:38:21;;;;;;;363.85;71.43;;;;;;;;;;4972680;28;20062;-73
2022/09/24 05:40:47;;;;;;;349.80;74.35;;;;;;;;;;4973072;28;20113;-73
2022/09/24 05:43:13;;;;;;;324.58;74.10;;;;;;;;;;4971582;28;20535;-73
2022/09/24 05:45:40;;;;;;;361.67;73.35;;;;;;;;;;4968952;28;20119;-74
2022/09/24 05:48:06;;;;;;;333.45;72.30;;;;;;;;;;4964364;28;20030;-73
2022/09/24 05:50:33;;;;;;;353.35;72.72;;;;;;;;;;4962893;28;20416;-74
2022/09/24 05:53:00;;;;;;;369.40;74.13;;;;;;;;;;4966988;28;20114;-73
2022/09/24 05:55:26;;;;;;;320.40;75.53;;;;;;;;;;4973364;28;20035;-73
2022/09/24 05:57:52;;;;;;;425.50;78.55;;;;;;;;;;4973939;28;20038;-73
2022/09/24 06:00:19;;;;;;;426.25;81.18;;;;;;;;;;4990045;28;20049;-73
2022/09/24 06:02:45;;;;;;;380.60;77.30;;;;;;;;;;4973555;28;20038;-73
2022/09/24 06:05:11;;;;;;;373.30;80.13;;;;;;;;;;4972831;28;20022;-73
2022/09/24 06:07:38;;;;;;;417.48;81.20;;;;;;;;;;4971801;28;20150;-73
2022/09/24 06:10:06;;;;;;;413.60;81.28;;;;;;;;;;4974508;28;20038;-73
2022/09/24 06:12:35;;;;;;;414.83;81.97;;;;;;;;;;4977828;28;20035;-73
2022/09/24 06:15:02;;;;;;;395.52;78.95;;;;;;;;;;4975207;28;20035;-73
2022/09/24 06:17:28;;;;;;;368.10;78.50;;;;;;;;;;4971316;28;20025;-73
2022/09/24 06:19:54;;;;;;;391.27;81.22;;;;;;;;;;4985247;28;20035;-72
2022/09/24 06:22:20;;;;;;;385.77;77.35;;;;;;;;;;4972327;28;20042;-72
2022/09/24 06:24:46;;;;;;;382.90;75.55;;;;;;;;;;4983655;28;20565;-72
2022/09/24 06:27:12;;;;;;;329.05;74.70;;;;;;;;;;4969183;28;20022;-73
2022/09/24 06:29:38;;;;;;;356.13;72.68;;;;;;;;;;4974643;28;20062;-73
2022/09/24 06:32:04;;;;;;;284.77;71.30;;;;;;;;;;4979001;28;20118;-73
2022/09/24 06:34:30;;;;;;;326.70;71.07;;;;;;;;;;4960414;28;20113;-72
2022/09/24 06:36:56;;;;;;;295.42;70.95;;;;;;;;;;4965980;28;20041;-73
2022/09/24 06:39:24;;;;;;;302.10;68.35;;;;;;;;;;4979300;28;20054;-73
2022/09/24 06:41:51;;;;;;;285.23;70.35;;;;;;;;;;4976824;28;20071;-73
2022/09/24 06:44:18;;;;;;;314.55;71.55;;;;;;;;;;4980485;28;20034;-73
2022/09/24 06:46:44;;;;;;;264.48;67.90;;;;;;;;;;4971288;28;20064;-72
2022/09/24 06:49:11;;;;;;;263.90;68.10;;;;;;;;;;4978374;28;20047;-72
2022/09/24 06:51:37;;;;;;;276.00;66.13;;;;;;;;;;4977966;28;20176;-72
2022/09/24 06:54:03;;;;;;;251.98;64.97;;;;;;;;;;4979804;28;20041;-72
2022/09/24 06:56:29;;;;;;;242.52;63.90;;;;;;;;;;4978761;28;20030;-73
2022/09/24 06:58:56;;;;;;;255.48;64.70;;;;;;;;;;4989965;28;20034;-73
2022/09/24 07:01:22;;;;;;;302.63;63.97;;;;;;;;;;4986014;28;20241;-73
2022/09/24 07:03:48;;;;;;;237.15;62.53;;;;;;;;;;4992414;28;20054;-73
2022/09/24 07:06:14;;;;;;;265.08;63.53;;;;;;;;;;4969727;28;20062;-72
2022/09/24 07:08:40;;;;;;;282.48;65.03;;;;;;;;;;4970369;28;20400;-73
2022/09/24 07:11:07;;;;;;;268.80;64.63;;;;;;;;;;4984636;28;20488;-73
2022/09/24 07:13:34;;;;;;;247.00;63.50;;;;;;;;;;4976206;28;20039;-73
2022/09/24 07:16:02;;;;;;;264.23;63.22;;;;;;;;;;4976461;28;20098;-73
2022/09/24 07:18:28;;;;;;;232.77;62.30;;;;;;;;;;4987551;28;20114;-73
2022/09/24 07:20:55;;;;;;;239.32;62.95;;;;;;;;;;4978368;28;20047;-73
2022/09/24 07:23:22;;;;;;;265.20;62.20;;;;;;;;;;4991846;28;20042;-73
2022/09/24 07:25:48;;;;;;;195.27;57.15;;;;;;;;;;4975354;28;20141;-73
2022/09/24 07:28:14;;;;;;;225.27;60.92;;;;;;;;;;4977700;28;20486;-73
2022/09/24 07:30:41;;;;;;;209.18;58.60;;;;;;;;;;4978845;28;20662;-73
2022/09/24 07:33:08;;;;;;;233.77;59.85;;;;;;;;;;4973255;28;20101;-73
2022/09/24 07:35:36;;;;;;;154.23;52.58;;;;;;;;;;4978816;28;20023;-73
2022/09/24 07:38:04;;;;;;;198.30;54.47;;;;;;;;;;4972885;28;20027;-73
2022/09/24 07:40:30;;;;;;;201.05;55.90;;;;;;;;;;4970991;28;20049;-73
2022/09/24 07:42:57;;;;;;;171.20;52.47;;;;;;;;;;4990349;28;20046;-73
2022/09/24 07:45:26;;;;;;;213.02;54.72;;;;;;;;;;4976737;28;20034;-73
2022/09/24 07:47:59;;;;;;;170.38;51.50;;;;;;;;;;4969794;28;20050;-73
2022/09/24 07:50:26;;;;;;;195.38;52.25;;;;;;;;;;4977487;28;20081;-72
2022/09/24 07:52:52;;;;;;;216.63;53.78;;;;;;;;;;4975778;28;20096;-73
2022/09/24 07:55:18;;;;;;;235.98;53.33;;;;;;;;;;4972788;28;20031;-73
2022/09/24 07:57:51;;;;;;;211.52;50.95;;;;;;;;;;4979700;28;20459;-72
2022/09/24 08:00:17;;;;;;;169.95;48.30;;;;;;;;;;4973282;28;20031;-72
2022/09/24 08:02:47;;;;;;;169.90;48.08;;;;;;;;;;4974296;28;20038;-72
2022/09/24 08:05:14;;;;;;;121.10;41.53;;;;;;;;;;4967794;28;20039;-73
2022/09/24 08:07:41;;;;;;;115.28;40.05;;;;;;;;;;4991115;28;20061;-72
2022/09/24 08:10:07;;;;;;;132.50;41.70;;;;;;;;;;4976930;28;20038;-72
2022/09/24 08:12:33;;;;;;;141.10;41.83;;;;;;;;;;4976065;28;20486;-72
2022/09/24 08:14:59;;;;;;;130.43;43.65;;;;;;;;;;4972867;28;20038;-73
2022/09/24 08:17:25;;;;;;;106.38;39.00;;;;;;;;;;5000705;28;20419;-72
2022/09/24 08:19:55;;;;;;;116.03;39.90;;;;;;;;;;4981351;28;20031;-72
2022/09/24 08:22:22;;;;;;;123.18;41.75;;;;;;;;;;4978856;28;20050;-72
2022/09/24 08:24:49;;;;;;;85.65;36.28;;;;;;;;;;4968858;28;20047;-74
2022/09/24 08:27:16;;;;;;;92.72;37.95;;;;;;;;;;4965211;28;20023;-73
2022/09/24 08:29:42;;;;;;;94.28;35.78;;;;;;;;;;4970715;28;20053;-72
2022/09/24 08:32:08;;;;;;;86.45;35.92;;;;;;;;;;4967746;28;20050;-72
2022/09/24 08:34:37;;;;;;;68.70;30.50;;;;;;;;;;4970640;28;20047;-73
2022/09/24 08:37:04;;;;;;;62.08;29.10;;;;;;;;;;4971723;28;20042;-73
2022/09/24 08:39:31;;;;;;;67.45;30.23;;;;;;;;;;4983800;28;20392;-73
2022/09/24 08:42:01;;;;;;;66.32;30.13;;;;;;;;;;4968784;28;20046;-73
2022/09/24 08:47:26;;;;;;;48.47;25.35;;;;;;;;;;4972814;28;20279;-73
2022/09/24 08:49:56;;;;;;;45.13;22.05;;;;;;;;;;4985625;28;20049;-73
2022/09/24 08:52:22;;;;;;;;;;;;;;;;;;4972023;28;20117;-75
2022/09/24 08:54:50;;;;;;;36.00;18.55;;;;;;;;;;4970256;28;20322;-72
2022/09/24 08:57:17;;;;;;;41.00;19.88;;;;;;;;;;4969947;28;20062;-71
2022/09/24 08:59:51;;;;;;;25.42;14.35;;;;;;;;;;4969045;28;20116;-72
2022/09/24 09:02:33;;;;;;;21.15;12.13;;;;;;;;;;4984996;28;20050;-72
2022/09/24 09:05:17;;;;;;;17.02;9.63;;;;;;;;;;4971906;28;20105;-72
2022/09/24 09:07:49;;;;;;;13.27;5.85;;;;;;;;;;4974308;28;20041;-71
2022/09/24 09:10:26;;;;;;;12.35;5.18;;;;;;;;;;4970891;28;20031;-72
2022/09/24 09:12:59;;;;;;;13.90;5.43;;;;;;;;;;4966493;28;20031;-71
2022/09/24 09:15:27;;;;;;;17.25;5.70;;;;;;;;;;4970441;28;20031;-71
2022/09/24 09:17:59;;;;;;;14.35;5.50;;;;;;;;;;4977687;28;20105;-70
2022/09/24 09:20:30;;;;;;;20.35;5.60;;;;;;;;;;4977898;28;20030;-72
2022/09/24 09:23:00;;;;;;;10.27;4.30;;;;;;;;;;4973159;28;20019;-71
2022/09/24 09:25:28;;;;;;;17.60;5.40;;;;;;;;;;4970620;28;20031;-71
2022/09/24 09:28:00;;;;;;;13.65;5.20;;;;;;;;;;4973758;28;20034;-71
2022/09/24 09:30:28;;;;;;;17.58;5.45;;;;;;;;;;4967038;28;20138;-70
2022/09/24 09:33:10;;;;;;;18.92;5.18;;;;;;;;;;4967925;28;20027;-71
2022/09/24 09:35:41;;;;;;;19.48;4.65;;;;;;;;;;4970777;28;20125;-71
2022/09/24 09:38:18;;;;;;;19.63;4.15;;;;;;;;;;4970731;28;20034;-71
2022/09/24 09:41:13;;;;;;;12.68;4.53;;;;;;;;;;4970671;28;20085;-73
2022/09/24 09:43:41;;;;;;;17.90;4.30;;;;;;;;;;4947519;28;20685;-72
2022/09/24 09:46:25;;;;;;;15.75;4.07;;;;;;;;;;4966436;28;20141;-72
2022/09/24 09:48:54;;;;;;;17.92;4.22;;;;;;;;;;4973971;28;20059;-72
2022/09/24 09:51:21;;;;;;;21.70;4.90;;;;;;;;;;4966652;28;20034;-73
2022/09/24 09:53:54;;;;;;;18.15;3.85;;;;;;;;;;4969832;28;20026;-72
2022/09/24 09:56:22;;;;;;;15.57;4.53;;;;;;;;;;4967918;28;20540;-72
2022/09/24 09:58:52;;;;;;;15.85;4.47;;;;;;;;;;4983987;28;20051;-73
2022/09/24 10:01:18;;;;;;;24.08;6.97;;;;;;;;;;4965304;28;20484;-72
2022/09/24 10:03:50;;;;;;;18.90;5.30;;;;;;;;;;4975730;28;20093;-73
2022/09/24 10:06:24;;;;;;;14.27;3.83;;;;;;;;;;4966999;28;20502;-72
2022/09/24 10:08:50;;;;;;;14.07;4.45;;;;;;;;;;4971169;28;20034;-72
2022/09/24 10:11:16;;;;;;;22.95;5.53;;;;;;;;;;4973593;28;20035;-72
2022/09/24 10:13:43;;;;;;;18.98;5.00;;;;;;;;;;4969712;28;20125;-75
2022/09/24 10:16:11;;;;;;;23.55;6.03;;;;;;;;;;4967853;28;20022;-73
2022/09/24 10:18:38;;;;;;;15.82;4.60;;;;;;;;;;4968425;28;20038;-72
2022/09/24 10:21:07;;;;;;;18.92;4.90;;;;;;;;;;4965821;28;20038;-73
2022/09/24 10:23:37;;;;;;;18.00;5.00;;;;;;;;;;4971034;28;20023;-73
2022/09/24 10:26:04;;;;;;;14.70;5.03;;;;;;;;;;4985326;28;20036;-73
2022/09/24 10:31:20;;;;;;;16.33;4.45;;;;;;;;;;4966740;28;20081;-73
2022/09/24 10:33:48;;;;;;;12.55;4.47;;;;;;;;;;4972920;28;20086;-73
2022/09/24 10:36:15;;;;;;;11.07;4.60;;;;;;;;;;4968355;28;20023;-73
2022/09/24 10:38:42;;;;;;;16.88;4.63;;;;;;;;;;4970198;28;20113;-75
2022/09/24 10:41:28;;;;;;;15.18;5.00;;;;;;;;;;4967351;28;20050;-73
2022/09/24 10:43:55;;;;;;;16.50;4.68;;;;;;;;;;4965704;28;20127;-73
2022/09/24 10:46:36;;;;;;;17.17;5.38;;;;;;;;;;4976361;28;20126;-73
2022/09/24 10:49:07;;;;;;;24.70;5.53;;;;;;;;;;4971599;28;20073;-73
2022/09/24 10:51:33;;;;;;;;;;;;;;;;;;4972407;28;20030;-74
2022/09/24 10:54:05;;;;;;;15.57;4.70;;;;;;;;;;4973417;28;19906;-74
2022/09/24 10:56:39;;;;;;;20.10;5.05;;;;;;;;;;4972207;28;20022;-74
2022/09/24 10:59:24;;;;;;;26.20;6.68;;;;;;;;;;4969171;28;20554;-74
2022/09/24 11:02:13;;;;;;;22.92;5.22;;;;;;;;;;4985639;28;20035;-74
2022/09/24 11:04:58;;;;;;;21.35;5.95;;;;;;;;;;4969363;28;20089;-73
2022/09/24 11:07:36;;;;;;;25.00;5.82;;;;;;;;;;4971030;28;20048;-72
2022/09/24 11:10:15;;;;;;;21.52;5.30;;;;;;;;;;4972790;28;20511;-72
2022/09/24 11:13:07;;;;;;;19.80;5.10;;;;;;;;;;4973432;28;20042;-72
2022/09/24 11:15:43;;;;;;;19.17;4.38;;;;;;;;;;4970466;28;20031;-73
2022/09/24 11:18:26;;;;;;;19.25;5.13;;;;;;;;;;4969634;28;20089;-72
2022/09/24 11:20:55;;;;;;;18.40;3.75;;;;;;;;;;4984706;28;20026;-73
2022/09/24 11:23:31;;;;;;;18.83;3.90;;;;;;;;;;4970909;28;20033;-73
2022/09/24 11:26:03;;;;;;;20.90;3.72;;;;;;;;;;4987199;28;20612;-72
2022/09/24 11:28:38;;;;;;;19.08;3.50;;;;;;;;;;4973053;28;20057;-72
2022/09/24 11:31:13;;;;;;;23.60;3.72;;;;;;;;;;4967239;28;20046;-73
2022/09/24 11:33:42;;;;;;;20.02;3.72;;;;;;;;;;4972606;28;20035;-73
2022/09/24 11:36:23;;;;;;;15.30;3.33;;;;;;;;;;4974214;28;20073;-73
2022/09/24 11:38:52;;;;;;;15.48;3.53;;;;;;;;;;4974009;28;20034;-73
2022/09/24 11:41:20;;;;;;;21.02;4.20;;;;;;;;;;4972103;28;20046;-73
2022/09/24 11:43:49;;;;;;;15.73;3.47;;;;;;;;;;4970747;28;20046;-73
2022/09/24 11:46:15;;;;;;;18.40;5.22;;;;;;;;;;4972908;28;20041;-75
2022/09/24 11:48:41;;;;;;;15.55;4.20;;;;;;;;;;4970116;28;20128;-73
2022/09/24 11:51:07;;;;;;;21.10;4.20;;;;;;;;;;4972368;28;20039;-73
2022/09/24 11:53:39;;;;;;;24.38;4.75;;;;;;;;;;4969442;28;20019;-73
2022/09/24 11:56:10;;;;;;;16.42;4.28;;;;;;;;;;4975479;28;20030;-74
2022/09/24 11:58:41;;;;;;;26.55;4.25;;;;;;;;;;4970341;28;20114;-74
2022/09/24 12:01:20;;;;;;;23.20;4.82;;;;;;;;;;4964541;28;20042;-74
2022/09/24 12:04:02;;;;;;;22.38;4.03;;;;;;;;;;4964152;28;20504;-74
2022/09/24 12:06:43;;;;;;;17.63;4.38;;;;;;;;;;4970499;28;20491;-72
2022/09/24 12:09:15;;;;;;;17.67;4.05;;;;;;;;;;4971680;28;20476;-72
2022/09/24 12:11:57;;;;;;;22.83;3.53;;;;;;;;;;4971962;28;20578;-72
2022/09/24 12:14:27;;;;;;;26.25;4.07;;;;;;;;;;4971895;28;20026;-73
2022/09/24 12:16:56;;;;;;;19.85;3.45;;;;;;;;;;4982847;28;20039;-72
2022/09/24 12:19:28;;;;;;;28.75;4.68;;;;;;;;;;4971025;28;20082;-72
2022/09/24 12:21:54;;;;;;;22.55;4.25;;;;;;;;;;4967609;28;20495;-72
2022/09/24 12:24:27;;;;;;;23.98;4.15;;;;;;;;;;4976874;28;20073;-72
2022/09/24 12:26:56;;;;;;;23.00;4.30;;;;;;;;;;4976506;28;20027;-72
2022/09/24 12:35:18;;;;;;;18.35;3.97;;;;;;;;;;4977200;28;20064;-72
2022/09/24 12:37:46;;;;;;;22.42;4.15;;;;;;;;;;4968486;28;20030;-72
2022/09/24 12:40:12;;;;;;;16.00;3.22;;;;;;;;;;4975314;28;20030;-73
2022/09/24 12:42:43;;;;;;;21.40;3.42;;;;;;;;;;4970191;28;20085;-73
2022/09/24 12:45:17;;;;;;;22.70;3.60;;;;;;;;;;4970401;28;20043;-73
2022/09/24 12:47:57;;;;;;;19.52;3.08;;;;;;;;;;4970356;28;20688;-73
2022/09/24 12:50:26;;;;;;;13.90;2.92;;;;;;;;;;4970253;28;20050;-72
2022/09/24 12:52:53;;;;;;;14.48;2.88;;;;;;;;;;4969120;28;20476;-72
2022/09/24 12:55:26;;;;;;;13.95;2.63;;;;;;;;;;4974884;28;20165;-73
2022/09/24 12:57:58;;;;;;;16.45;2.70;;;;;;;;;;4968076;28;20101;-72
2022/09/24 13:00:33;;;;;;;14.95;2.22;;;;;;;;;;4972692;28;20065;-72
2022/09/24 13:03:00;;;;;;;9.25;1.98;;;;;;;;;;4974622;28;20515;-72
2022/09/24 13:05:29;;;;;;;10.80;1.85;;;;;;;;;;4975736;28;20169;-72
2022/09/24 13:08:01;;;;;;;14.93;3.10;;;;;;;;;;4971867;28;20069;-71
2022/09/24 13:10:27;;;;;;;17.67;2.33;;;;;;;;;;4975863;28;20838;-71
2022/09/24 13:12:53;;;;;;;15.48;2.38;;;;;;;;;;4970459;28;20136;-71
2022/09/24 13:15:26;;;;;;;10.50;2.42;;;;;;;;;;4988981;28;20050;-71
2022/09/24 13:18:10;;;;;;;22.35;3.03;;;;;;;;;;4972367;28;20046;-72
2022/09/24 13:20:38;;;;;;;16.30;2.50;;;;;;;;;;4975037;28;20035;-72
2022/09/24 13:23:11;;;;;;;14.80;2.78;;;;;;;;;;4970617;28;20037;-71
2022/09/24 13:25:37;;;;;;;17.85;2.40;;;;;;;;;;4972013;28;20042;-72
2022/09/24 13:28:18;;;;;;;13.70;2.53;;;;;;;;;;4966033;28;20507;-73
2022/09/24 13:30:48;;;;;;;18.80;2.70;;;;;;;;;;4972205;28;20078;-71
2022/09/24 13:33:24;;;;;;;23.90;3.20;;;;;;;;;;4972311;28;20528;-72
2022/09/24 13:36:12;;;;;;;15.30;2.60;;;;;;;;;;4969284;28;20453;-73
2022/09/24 13:38:56;;;;;;;9.65;2.38;;;;;;;;;;4964176;28;20031;-71
2022/09/24 13:41:26;;;;;;;15.38;2.83;;;;;;;;;;4970432;28;20038;-70
2022/09/24 13:44:04;;;;;;;14.80;2.85;;;;;;;;;;4976097;28;20039;-72
2022/09/24 13:46:31;;;;;;;19.88;2.80;;;;;;;;;;4969191;28;20288;-71
2022/09/24 13:49:00;;;;;;;14.55;2.75;;;;;;;;;;4967958;28;20219;-71
2022/09/24 13:51:29;;;;;;;13.80;2.40;;;;;;;;;;4965882;28;20038;-71
2022/09/24 13:54:04;;;;;;;14.23;2.30;;;;;;;;;;4968990;28;20026;-72
2022/09/24 13:56:31;;;;;;;15.32;2.38;;;;;;;;;;4970189;28;20030;-72
2022/09/24 13:59:05;;;;;;;15.80;3.08;;;;;;;;;;4964952;28;20463;-72
2022/09/24 14:01:35;;;;;;;13.77;2.53;;;;;;;;;;4971252;28;20038;-72
2022/09/24 14:04:04;;;;;;;12.25;2.28;;;;;;;;;;4977392;28;20038;-71
2022/09/24 14:06:35;;;;;;;16.60;2.72;;;;;;;;;;4968567;28;20049;-71
2022/09/24 14:09:01;;;;;;;10.75;1.90;;;;;;;;;;4967514;28;20030;-72
2022/09/24 14:11:27;;;;;;;11.93;1.83;;;;;;;;;;4985254;28;20249;-71
2022/09/24 14:13:55;;;;;;;13.57;2.22;;;;;;;;;;4964657;28;20127;-71
2022/09/24 14:16:24;;;;;;;11.43;2.35;;;;;;;;;;4968399;28;20031;-71
2022/09/24 14:19:04;;;;;;;10.70;2.30;;;;;;;;;;4974077;28;20070;-72
2022/09/24 14:21:41;;;;;;;13.15;2.22;;;;;;;;;;4973779;28;20069;-73
2022/09/24 14:24:28;;;;;;;10.23;2.42;;;;;;;;;;4969378;28;20023;-71
2022/09/24 14:27:01;;;;;;;6.55;1.90;;;;;;;;;;4974257;28;20053;-72
2022/09/24 14:29:29;;;;;;;14.30;2.95;;;;;;;;;;4973555;28;20054;-72
2022/09/24 14:31:57;;;;;;;9.52;2.08;;;;;;;;;;4966913;28;20078;-72
2022/09/24 14:34:23;;;;;;;14.05;1.90;;;;;;;;;;4973153;28;20552;-71
2022/09/24 14:36:50;;;;;;;16.90;3.25;;;;;;;;;;4974154;28;20517;-72
2022/09/24 14:39:16;;;;;;;12.40;2.30;;;;;;;;;;4970546;28;20038;-71
2022/09/24 14:41:42;;;;;;;9.70;1.65;;;;;;;;;;4972878;28;20161;-71
2022/09/24 14:44:15;;;;;;;13.00;2.40;;;;;;;;;;4975948;28;20039;-72
2022/09/24 14:46:47;;;;;;;9.55;2.13;;;;;;;;;;4966793;28;20502;-72